Time;durP1;ratioP1;P1;durP2;ratioP2;P2;SDS_P1;SDS_P2;PMS_P1;PMS_P2;Temp;Humidity;BMP_temperature;BMP_pressure;BME280_temperature;BME280_humidity;BME280_pressure;Samples;Min_cycle;Max_cycle;Signal;HPM_P1;HPM_P2
2023/03/13 00:01:37;;;;;;;8.93;2.07;;;9.00;34.40;;;;;;5058774;28;20473;-61
2023/03/13 00:04:04;;;;;;;7.17;2.03;;;9.00;34.30;;;;;;5060419;28;20500;-61
2023/03/13 00:06:34;;;;;;;9.10;2.40;;;8.90;34.20;;;;;;5060784;28;20468;-61
2023/03/13 00:09:02;;;;;;;6.70;2.73;;;8.90;34.30;;;;;;5054869;28;20469;-61
2023/03/13 00:11:28;;;;;;;6.83;2.20;;;8.90;34.10;;;;;;5055846;28;20987;-61
2023/03/13 00:13:55;;;;;;;9.63;2.67;;;8.90;34.10;;;;;;5062424;28;20551;-61
2023/03/13 00:16:22;;;;;;;9.00;3.70;;;8.90;34.10;;;;;;5056316;28;20458;-61
2023/03/13 00:18:51;;;;;;;6.50;2.30;;;8.90;34.00;;;;;;5060491;28;20458;-61
2023/03/13 00:21:19;;;;;;;7.77;2.30;;;8.90;34.00;;;;;;5059389;28;20815;-61
2023/03/13 00:23:48;;;;;;;8.00;1.90;;;8.80;33.90;;;;;;5059703;28;20477;-61
2023/03/13 00:26:18;;;;;;;5.77;1.53;;;8.80;33.90;;;;;;5061010;28;20457;-61
2023/03/13 00:28:45;;;;;;;6.77;1.80;;;8.80;33.90;;;;;;5058795;28;20457;-61
2023/03/13 00:31:13;;;;;;;5.57;1.47;;;8.80;33.90;;;;;;5060013;28;20697;-62
2023/03/13 00:33:42;;;;;;;6.17;2.23;;;8.80;33.80;;;;;;5055759;28;20477;-61
2023/03/13 00:36:10;;;;;;;6.80;1.70;;;8.80;33.90;;;;;;5061631;28;20453;-61
2023/03/13 00:38:37;;;;;;;11.47;2.47;;;8.80;33.80;;;;;;5066955;28;20464;-61
2023/03/13 00:41:07;;;;;;;9.20;2.07;;;8.80;33.70;;;;;;5063093;28;20465;-61
2023/03/13 00:43:35;;;;;;;12.47;2.20;;;8.80;33.70;;;;;;5065588;28;20485;-61
2023/03/13 00:46:02;;;;;;;12.73;2.30;;;8.80;33.50;;;;;;5061760;28;20453;-62
2023/03/13 00:48:29;;;;;;;8.53;1.90;;;8.80;33.60;;;;;;5065703;28;20461;-61
2023/03/13 00:50:55;;;;;;;11.60;1.70;;;8.80;33.60;;;;;;5064436;28;20461;-61
2023/03/13 00:53:22;;;;;;;5.77;1.60;;;8.80;33.30;;;;;;5062177;28;20474;-61
2023/03/13 00:55:55;;;;;;;5.80;1.57;;;8.80;33.30;;;;;;5058752;28;20457;-61
2023/03/13 00:58:23;;;;;;;7.17;1.60;;;8.90;33.20;;;;;;5059465;28;20452;-62
2023/03/13 01:00:50;;;;;;;11.03;3.17;;;8.80;33.30;;;;;;5060995;28;20468;-61
2023/03/13 01:03:17;;;;;;;8.93;2.10;;;8.90;33.20;;;;;;5060031;28;20518;-61
2023/03/13 01:05:44;;;;;;;9.83;1.77;;;8.90;33.10;;;;;;5060711;28;20453;-61
2023/03/13 01:08:11;;;;;;;9.83;2.53;;;8.90;33.00;;;;;;5065422;28;20469;-62
2023/03/13 01:10:38;;;;;;;5.87;1.50;;;8.90;33.00;;;;;;5058982;28;20469;-61
2023/03/13 01:13:06;;;;;;;6.73;1.60;;;8.90;33.00;;;;;;5060213;28;20453;-61
2023/03/13 01:15:36;;;;;;;8.30;1.53;;;8.90;33.00;;;;;;5058321;28;20790;-62
2023/03/13 01:18:02;;;;;;;6.40;1.80;;;8.90;33.00;;;;;;5059341;28;20496;-62
2023/03/13 01:20:29;;;;;;;5.30;1.40;;;8.90;32.90;;;;;;5066926;28;20496;-62
2023/03/13 01:22:56;;;;;;;11.30;1.87;;;8.90;32.80;;;;;;5061698;28;20844;-62
2023/03/13 01:25:23;;;;;;;10.80;1.93;;;8.90;32.80;;;;;;5064699;28;21061;-62
2023/03/13 01:27:49;;;;;;;5.93;1.60;;;8.80;32.70;;;;;;5061451;28;20494;-61
2023/03/13 01:30:17;;;;;;;10.47;1.90;;;8.80;32.70;;;;;;5062140;28;20460;-62
2023/03/13 01:32:45;;;;;;;8.80;1.97;;;8.80;32.70;;;;;;5063339;28;20456;-62
2023/03/13 01:35:11;;;;;;;6.20;1.70;;;8.80;32.70;;;;;;5061374;28;20481;-62
2023/03/13 01:37:38;;;;;;;8.60;1.70;;;8.80;32.60;;;;;;5059128;28;20457;-61
2023/03/13 01:40:06;;;;;;;7.80;2.43;;;8.80;32.60;;;;;;5065809;28;20453;-61
2023/03/13 01:42:49;;;;;;;9.00;1.80;;;8.80;32.50;;;;;;5059075;28;20453;-62
2023/03/13 01:46:03;;;;;;;7.80;1.30;;;8.80;32.60;;;;;;5053667;28;20468;-61
2023/03/13 01:48:37;;;;;;;5.37;2.00;;;8.80;32.60;;;;;;4996013;28;20466;-62
2023/03/13 01:51:08;;;;;;;5.60;1.40;;;8.80;32.50;;;;;;5001866;28;20499;-61
2023/03/13 01:53:39;;;;;;;12.73;2.73;;;8.80;32.50;;;;;;5028669;28;20500;-62
2023/03/13 01:56:11;;;;;;;6.13;1.43;;;8.80;32.50;;;;;;5060825;28;20469;-61
2023/03/13 01:58:38;;;;;;;6.10;1.40;;;8.80;32.60;;;;;;5063501;28;20854;-62
2023/03/13 02:01:06;;;;;;;6.17;1.57;;;8.80;32.70;;;;;;5060878;28;21252;-61
2023/03/13 02:03:35;;;;;;;6.97;1.93;;;8.80;32.70;;;;;;5059470;28;22915;-62
2023/03/13 02:06:04;;;;;;;5.70;1.47;;;8.80;32.60;;;;;;5055630;28;21033;-61
2023/03/13 02:08:35;;;;;;;7.37;1.40;;;8.70;32.70;;;;;;5060925;28;20492;-62
2023/03/13 02:11:10;;;;;;;6.20;1.30;;;8.70;32.60;;;;;;5056156;28;20464;-62
2023/03/13 02:13:37;;;;;;;7.10;1.70;;;8.70;32.70;;;;;;5057731;28;20476;-62
2023/03/13 02:16:05;;;;;;;7.53;1.70;;;8.80;32.50;;;;;;5053348;28;21007;-62
2023/03/13 02:18:32;;;;;;;7.40;1.53;;;8.80;32.50;;;;;;5065708;28;20465;-61
2023/03/13 02:21:08;;;;;;;6.30;1.40;;;8.80;32.50;;;;;;5057104;28;20465;-61
2023/03/13 02:23:39;;;;;;;4.40;1.07;;;8.80;32.60;;;;;;5058483;28;20488;-62
2023/03/13 02:26:07;;;;;;;7.77;1.90;;;8.80;32.40;;;;;;5061995;28;20492;-62
2023/03/13 02:28:38;;;;;;;4.67;1.10;;;8.80;32.30;;;;;;5061999;28;20461;-62
2023/03/13 02:31:06;;;;;;;4.80;1.10;;;8.80;32.50;;;;;;5060722;28;20462;-61
2023/03/13 02:33:35;;;;;;;5.00;1.50;;;8.80;32.50;;;;;;5058923;28;20484;-62
2023/03/13 02:36:03;;;;;;;4.20;1.20;;;8.70;32.50;;;;;;5056413;28;20473;-62
2023/03/13 02:38:33;;;;;;;6.13;1.27;;;8.70;32.50;;;;;;5062325;28;20461;-62
2023/03/13 02:41:01;;;;;;;4.63;1.23;;;8.70;32.50;;;;;;5055422;28;20449;-61
2023/03/13 02:43:31;;;;;;;6.60;1.90;;;8.70;32.50;;;;;;5057878;28;20493;-62
2023/03/13 02:46:04;;;;;;;6.70;1.33;;;8.70;32.50;;;;;;5056132;28;20457;-61
2023/03/13 02:48:33;;;;;;;6.70;1.30;;;8.80;32.50;;;;;;5058399;28;20453;-62
2023/03/13 02:51:00;;;;;;;5.37;1.10;;;8.80;32.40;;;;;;5058823;28;20461;-61
2023/03/13 02:53:28;;;;;;;4.40;1.00;;;8.80;32.10;;;;;;5057413;28;20560;-62
2023/03/13 02:55:55;;;;;;;5.97;0.93;;;8.90;32.20;;;;;;5059204;28;20469;-62
2023/03/13 02:58:24;;;;;;;5.63;1.20;;;8.90;32.20;;;;;;5057062;28;20462;-62
2023/03/13 03:00:52;;;;;;;8.27;1.53;;;8.90;32.00;;;;;;5062400;28;20461;-62
2023/03/13 03:03:19;;;;;;;6.10;1.23;;;8.90;32.10;;;;;;5058569;28;20496;-62
2023/03/13 03:05:45;;;;;;;7.27;1.80;;;8.90;31.90;;;;;;5062615;28;20457;-62
2023/03/13 03:08:12;;;;;;;5.17;1.57;;;8.90;31.80;;;;;;5060347;28;20507;-62
2023/03/13 03:10:39;;;;;;;6.70;1.43;;;9.00;31.60;;;;;;5061363;28;20469;-61
2023/03/13 03:13:05;;;;;;;5.67;1.13;;;9.00;31.60;;;;;;5053922;28;20485;-61
2023/03/13 03:15:32;;;;;;;6.00;1.23;;;9.00;31.60;;;;;;5053999;28;20458;-62
2023/03/13 03:18:00;;;;;;;5.93;1.43;;;9.00;31.60;;;;;;5057298;28;20469;-62
2023/03/13 03:20:27;;;;;;;5.60;1.57;;;9.00;31.60;;;;;;5059059;28;20484;-62
2023/03/13 03:22:53;;;;;;;4.30;1.33;;;9.00;31.60;;;;;;5057201;28;20462;-61
2023/03/13 03:25:20;;;;;;;8.17;1.70;;;9.00;31.50;;;;;;5061647;28;20481;-61
2023/03/13 03:27:47;;;;;;;5.40;1.00;;;9.00;31.50;;;;;;5055583;28;20464;-62
2023/03/13 03:30:15;;;;;;;8.40;2.07;;;9.00;31.50;;;;;;5061907;28;21000;-62
2023/03/13 03:32:41;;;;;;;5.40;0.90;;;9.00;31.50;;;;;;5060911;28;20469;-62
2023/03/13 03:35:09;;;;;;;6.80;1.23;;;9.10;31.50;;;;;;5056966;28;20493;-61
2023/03/13 03:37:36;;;;;;;6.30;1.33;;;9.10;31.30;;;;;;5059639;28;20541;-62
2023/03/13 03:40:05;;;;;;;4.33;1.23;;;9.10;31.40;;;;;;5063175;28;20466;-62
2023/03/13 03:42:32;;;;;;;5.30;1.43;;;9.10;31.40;;;;;;5057658;28;20501;-62
2023/03/13 03:44:59;;;;;;;5.67;1.30;;;9.10;31.40;;;;;;5063813;28;20484;-62
2023/03/13 03:47:25;;;;;;;5.37;1.50;;;9.10;31.40;;;;;;5056404;28;20485;-62
2023/03/13 03:49:52;;;;;;;4.90;1.50;;;9.20;31.40;;;;;;5060119;28;20468;-62
2023/03/13 03:52:20;;;;;;;6.00;1.30;;;9.20;31.20;;;;;;5060172;28;20460;-61
2023/03/13 03:54:47;;;;;;;4.63;1.03;;;9.20;31.30;;;;;;5059141;28;21101;-61
2023/03/13 03:57:13;;;;;;;6.03;1.47;;;9.20;31.50;;;;;;5058868;28;20489;-61
2023/03/13 03:59:40;;;;;;;5.20;1.07;;;9.20;31.60;;;;;;5062475;28;20461;-61
2023/03/13 04:02:07;;;;;;;5.23;1.33;;;9.20;31.50;;;;;;5060568;28;20477;-61
2023/03/13 04:04:34;;;;;;;3.90;1.00;;;9.30;31.40;;;;;;5057077;28;21179;-60
2023/03/13 04:07:00;;;;;;;4.50;1.20;;;9.30;31.10;;;;;;5064591;28;20454;-60
2023/03/13 04:09:29;;;;;;;4.90;1.27;;;9.40;30.90;;;;;;5059529;28;20495;-61
2023/03/13 04:11:55;;;;;;;10.20;1.40;;;9.40;30.90;;;;;;5053573;28;20476;-61
2023/03/13 04:14:22;;;;;;;6.93;1.67;;;9.40;30.80;;;;;;5057042;28;20507;-61
2023/03/13 04:16:49;;;;;;;5.70;1.63;;;9.40;30.70;;;;;;5057811;28;20491;-61
2023/03/13 04:19:15;;;;;;;6.03;1.60;;;9.50;30.70;;;;;;5063467;28;20454;-61
2023/03/13 04:21:42;;;;;;;6.77;1.73;;;9.50;30.70;;;;;;5060075;28;20981;-61
2023/03/13 04:24:09;;;;;;;4.97;1.13;;;9.50;30.50;;;;;;5055523;28;20480;-61
2023/03/13 04:26:37;;;;;;;7.63;1.93;;;9.50;30.70;;;;;;5053647;28;20911;-61
2023/03/13 04:29:05;;;;;;;6.00;1.30;;;9.50;30.70;;;;;;5060130;28;20464;-61
2023/03/13 04:31:31;;;;;;;5.53;1.33;;;9.50;30.60;;;;;;5056839;28;20469;-60
2023/03/13 04:33:58;;;;;;;5.87;1.30;;;9.50;30.40;;;;;;5057211;28;20473;-60
2023/03/13 04:36:25;;;;;;;5.70;1.40;;;9.60;30.60;;;;;;5058328;28;20484;-60
2023/03/13 04:38:51;;;;;;;6.70;1.37;;;9.60;30.60;;;;;;5062094;28;20464;-62
2023/03/13 04:41:18;;;;;;;6.80;2.13;;;9.60;30.60;;;;;;5058996;28;20881;-61
2023/03/13 04:43:46;;;;;;;4.43;0.83;;;9.60;30.50;;;;;;5052922;28;20473;-61
2023/03/13 04:46:13;;;;;;;6.20;1.20;;;9.60;30.50;;;;;;5055063;28;20480;-61
2023/03/13 04:48:40;;;;;;;6.73;1.83;;;9.70;30.30;;;;;;5059887;28;20480;-61
2023/03/13 04:51:06;;;;;;;4.13;1.20;;;9.70;30.40;;;;;;5057871;28;20457;-61
2023/03/13 04:53:33;;;;;;;6.03;1.33;;;9.60;30.10;;;;;;5052986;28;22237;-61
2023/03/13 04:56:00;;;;;;;4.80;1.20;;;9.70;29.70;;;;;;5059797;28;20462;-61
2023/03/13 04:58:26;;;;;;;4.30;1.00;;;9.70;29.60;;;;;;5059273;28;20457;-61
2023/03/13 05:00:55;;;;;;;4.47;1.20;;;9.70;29.50;;;;;;5054877;28;20481;-61
2023/03/13 05:03:22;;;;;;;4.20;1.00;;;9.70;29.30;;;;;;5049805;28;20485;-62
2023/03/13 05:05:49;;;;;;;4.20;1.20;;;9.80;29.30;;;;;;5054751;28;20481;-62
2023/03/13 05:08:16;;;;;;;4.63;1.20;;;9.80;29.00;;;;;;5061906;28;20453;-62
2023/03/13 05:10:42;;;;;;;6.60;1.43;;;9.80;28.90;;;;;;5056228;28;20462;-62
2023/03/13 05:13:09;;;;;;;5.03;0.90;;;9.80;28.90;;;;;;5059971;28;20531;-62
2023/03/13 05:15:36;;;;;;;7.10;0.90;;;9.80;28.60;;;;;;5058253;28;21130;-62
2023/03/13 05:18:04;;;;;;;4.20;1.03;;;9.90;28.80;;;;;;5055019;28;20460;-62
2023/03/13 05:20:31;;;;;;;4.60;1.20;;;9.90;28.60;;;;;;5063836;28;20453;-62
2023/03/13 05:22:57;;;;;;;4.93;1.33;;;9.90;28.10;;;;;;5061685;28;20475;-62
2023/03/13 05:25:24;;;;;;;6.50;1.47;;;9.90;28.30;;;;;;5067560;28;20469;-62
2023/03/13 05:27:51;;;;;;;4.47;1.13;;;9.90;28.40;;;;;;5060661;28;20462;-62
2023/03/13 05:30:18;;;;;;;4.20;1.20;;;9.90;28.30;;;;;;5061926;28;20468;-62
2023/03/13 05:32:45;;;;;;;4.67;1.10;;;9.90;28.20;;;;;;5066305;28;20577;-62
2023/03/13 05:35:13;;;;;;;3.87;1.10;;;9.90;28.20;;;;;;5066140;28;20986;-62
2023/03/13 05:37:40;;;;;;;8.37;1.10;;;9.90;28.10;;;;;;5063959;28;20474;-62
2023/03/13 05:40:08;;;;;;;5.30;1.10;;;9.90;27.80;;;;;;5064736;28;20949;-62
2023/03/13 05:42:35;;;;;;;4.90;1.50;;;9.90;27.80;;;;;;5066298;28;20500;-62
2023/03/13 05:45:02;;;;;;;5.33;1.23;;;9.90;27.70;;;;;;5065637;28;20495;-60
2023/03/13 05:47:29;;;;;;;5.93;1.03;;;9.90;27.90;;;;;;5065227;28;20461;-59
2023/03/13 05:49:55;;;;;;;5.50;1.50;;;10.00;28.70;;;;;;5065206;28;20957;-60
2023/03/13 05:52:23;;;;;;;5.10;1.17;;;10.00;28.70;;;;;;5061054;28;20462;-60
2023/03/13 05:54:50;;;;;;;5.93;1.60;;;10.10;28.80;;;;;;5065193;28;20469;-60
2023/03/13 05:57:17;;;;;;;4.30;1.30;;;10.10;28.70;;;;;;5061733;28;20973;-62
2023/03/13 05:59:44;;;;;;;4.00;1.07;;;10.20;27.60;;;;;;5062726;28;20457;-62
2023/03/13 06:02:10;;;;;;;4.77;1.20;;;10.20;26.70;;;;;;5064054;28;20480;-61
2023/03/13 06:04:37;;;;;;;4.37;1.50;;;10.30;26.60;;;;;;5059809;28;20488;-62
2023/03/13 06:07:04;;;;;;;5.50;1.40;;;10.30;26.10;;;;;;5059748;28;20468;-62
2023/03/13 06:09:32;;;;;;;4.40;1.00;;;10.30;26.20;;;;;;5064967;28;20481;-62
2023/03/13 06:11:59;;;;;;;3.93;0.80;;;10.30;26.20;;;;;;5061483;28;20831;-62
2023/03/13 06:14:26;;;;;;;8.20;1.77;;;10.20;26.10;;;;;;5060966;28;20480;-61
2023/03/13 06:16:54;;;;;;;4.80;1.10;;;10.30;26.30;;;;;;5060493;28;20833;-61
2023/03/13 06:19:23;;;;;;;4.80;0.80;;;10.20;26.30;;;;;;5059917;28;20460;-62
2023/03/13 06:21:50;;;;;;;6.43;1.30;;;10.30;26.40;;;;;;5063051;28;20577;-62
2023/03/13 06:24:17;;;;;;;4.77;1.20;;;10.30;26.40;;;;;;5061537;28;20493;-61
2023/03/13 06:26:45;;;;;;;4.37;1.00;;;10.30;26.40;;;;;;5057714;28;20468;-60
2023/03/13 06:29:11;;;;;;;4.60;1.70;;;10.30;26.10;;;;;;5065365;28;20488;-61
2023/03/13 06:31:38;;;;;;;4.20;1.03;;;10.30;26.10;;;;;;5063090;28;20474;-61
2023/03/13 06:34:05;;;;;;;6.13;1.00;;;10.30;26.80;;;;;;5061745;28;20484;-61
2023/03/13 06:36:32;;;;;;;4.63;1.13;;;10.30;26.10;;;;;;5064630;28;20468;-61
2023/03/13 06:38:59;;;;;;;5.50;1.00;;;10.30;26.10;;;;;;5064516;28;21205;-62
2023/03/13 06:41:26;;;;;;;4.00;0.90;;;10.30;26.10;;;;;;5058541;28;20465;-61
2023/03/13 06:43:54;;;;;;;6.67;1.60;;;10.20;26.10;;;;;;5061252;28;20488;-61
2023/03/13 06:46:23;;;;;;;3.70;0.93;;;10.20;26.20;;;;;;5063787;28;20480;-61
2023/03/13 06:48:50;;;;;;;4.60;1.17;;;10.20;26.40;;;;;;5065567;28;20460;-61
2023/03/13 06:51:18;;;;;;;4.50;1.40;;;10.20;26.50;;;;;;5065570;28;20819;-61
2023/03/13 06:53:46;;;;;;;4.10;1.07;;;10.20;26.60;;;;;;5066156;28;20473;-62
2023/03/13 06:56:12;;;;;;;5.03;0.90;;;10.20;26.60;;;;;;5064843;28;20464;-62
2023/03/13 06:58:40;;;;;;;4.27;1.33;;;10.20;26.70;;;;;;5061636;28;20476;-61
2023/03/13 07:01:09;;;;;;;3.60;0.90;;;10.20;26.80;;;;;;5066651;28;20461;-62
2023/03/13 07:03:36;;;;;;;9.83;1.33;;;10.30;26.90;;;;;;5059495;28;20488;-61
2023/03/13 07:06:03;;;;;;;6.07;1.60;;;10.30;27.20;;;;;;5062915;28;20466;-61
2023/03/13 07:08:30;;;;;;;4.70;1.40;;;10.30;27.70;;;;;;5062092;28;20453;-61
2023/03/13 07:10:59;;;;;;;5.50;2.30;;;10.30;28.00;;;;;;5063352;28;20472;-61
2023/03/13 07:13:26;;;;;;;4.90;1.30;;;10.30;28.50;;;;;;5062331;28;20477;-61
2023/03/13 07:15:54;;;;;;;4.57;1.70;;;10.40;28.40;;;;;;5061195;28;20460;-61
2023/03/13 07:18:23;;;;;;;4.43;1.20;;;10.40;28.60;;;;;;5063976;28;20460;-61
2023/03/13 07:20:54;;;;;;;7.03;2.60;;;10.50;28.80;;;;;;5064886;28;20460;-61
2023/03/13 07:23:21;;;;;;;5.30;1.37;;;10.50;28.80;;;;;;5058408;28;20530;-61
2023/03/13 07:25:54;;;;;;;5.20;0.97;;;10.60;28.60;;;;;;5060868;28;20481;-61
2023/03/13 07:28:21;;;;;;;4.73;1.17;;;10.70;28.60;;;;;;5060500;28;20489;-62
2023/03/13 07:30:49;;;;;;;5.00;1.00;;;10.90;28.20;;;;;;5061666;28;20473;-62
2023/03/13 07:33:15;;;;;;;6.60;1.20;;;11.10;27.60;;;;;;5063783;28;20509;-60
2023/03/13 07:35:49;;;;;;;5.70;1.13;;;11.40;26.70;;;;;;5062706;28;20832;-60
2023/03/13 07:38:16;;;;;;;4.53;1.10;;;11.70;26.10;;;;;;5063796;28;20485;-61
2023/03/13 07:40:48;;;;;;;4.37;1.60;;;11.90;25.60;;;;;;5062119;28;20468;-62
2023/03/13 07:43:15;;;;;;;4.00;1.10;;;12.40;24.70;;;;;;5058002;28;20509;-62
2023/03/13 07:45:53;;;;;;;3.83;1.03;;;13.20;23.20;;;;;;5059810;28;20477;-62
2023/03/13 07:48:21;;;;;;;3.70;0.83;;;14.20;20.20;;;;;;5062175;28;20453;-60
2023/03/13 07:50:49;;;;;;;3.63;0.70;;;15.30;17.90;;;;;;5061696;28;21015;-61
2023/03/13 07:53:20;;;;;;;4.30;1.20;;;15.50;16.00;;;;;;5063058;28;20473;-60
2023/03/13 07:55:54;;;;;;;3.60;0.83;;;15.10;15.90;;;;;;5065160;28;20477;-62
2023/03/13 07:58:21;;;;;;;4.80;1.07;;;14.60;16.50;;;;;;5057045;28;20452;-61
2023/03/13 08:00:47;;;;;;;3.97;1.23;;;14.30;16.80;;;;;;5063946;28;20472;-62
2023/03/13 08:03:14;;;;;;;4.47;1.07;;;14.00;17.20;;;;;;5054772;28;20568;-61
2023/03/13 08:05:41;;;;;;;4.10;0.90;;;13.80;18.00;;;;;;5065510;28;20503;-62
2023/03/13 08:08:09;;;;;;;3.80;0.73;;;13.70;18.40;;;;;;5055554;28;20465;-62
2023/03/13 08:10:36;;;;;;;4.20;1.00;;;13.70;18.50;;;;;;5064846;28;20461;-61
2023/03/13 08:13:03;;;;;;;4.60;0.90;;;14.10;18.70;;;;;;5057644;28;20465;-62
2023/03/13 08:15:30;;;;;;;4.43;1.00;;;14.80;17.50;;;;;;5062446;28;20453;-62
2023/03/13 08:17:57;;;;;;;4.63;0.87;;;15.40;16.40;;;;;;5053978;28;20453;-62
2023/03/13 08:20:23;;;;;;;5.10;0.90;;;16.20;15.40;;;;;;5066344;28;20453;-62
2023/03/13 08:22:50;;;;;;;3.90;1.00;;;17.20;13.80;;;;;;5059398;28;20457;-62
2023/03/13 08:25:18;;;;;;;4.50;0.93;;;18.40;11.10;;;;;;5063991;28;20476;-62
2023/03/13 08:27:45;;;;;;;4.80;0.90;;;19.30;9.50;;;;;;5061747;28;20457;-62
2023/03/13 08:30:13;;;;;;;3.47;0.80;;;20.10;8.20;;;;;;5061477;28;20480;-62
2023/03/13 08:32:40;;;;;;;5.70;0.70;;;20.00;7.50;;;;;;5056178;28;20478;-62
2023/03/13 08:35:07;;;;;;;5.40;1.90;;;20.10;7.20;;;;;;5063100;28;20469;-62
2023/03/13 08:37:34;;;;;;;3.87;0.70;;;20.00;6.60;;;;;;5060423;28;21296;-62
2023/03/13 08:40:01;;;;;;;6.07;0.77;;;19.70;7.40;;;;;;5061113;28;20465;-62
2023/03/13 08:42:29;;;;;;;4.30;0.90;;;19.40;7.90;;;;;;5060944;28;20450;-61
2023/03/13 08:44:55;;;;;;;4.77;0.90;;;19.10;8.60;;;;;;5057236;28;20477;-63
2023/03/13 08:47:22;;;;;;;3.90;0.80;;;19.10;8.60;;;;;;5060313;28;20832;-61
2023/03/13 08:49:49;;;;;;;5.00;0.90;;;19.20;8.50;;;;;;5063621;28;20461;-62
2023/03/13 08:52:15;;;;;;;7.73;0.80;;;19.20;8.50;;;;;;5058660;28;20461;-62
2023/03/13 08:54:43;;;;;;;5.80;1.00;;;19.10;8.80;;;;;;5058991;28;20485;-63
2023/03/13 08:57:09;;;;;;;5.13;0.87;;;19.00;9.00;;;;;;5062075;28;20453;-61
2023/03/13 08:59:37;;;;;;;4.30;0.80;;;19.00;9.10;;;;;;5065011;28;20870;-62
2023/03/13 09:02:04;;;;;;;8.70;5.03;;;19.00;9.10;;;;;;5063227;28;20485;-62
2023/03/13 09:04:31;;;;;;;6.40;2.70;;;19.10;9.00;;;;;;5058485;28;20861;-62
2023/03/13 09:06:58;;;;;;;6.73;1.20;;;19.10;9.00;;;;;;5058324;28;20487;-62
2023/03/13 09:09:24;;;;;;;4.17;1.07;;;19.60;8.90;;;;;;5067739;28;20449;-61
2023/03/13 09:11:51;;;;;;;4.27;0.87;;;21.10;6.90;;;;;;5059841;28;20468;-62
2023/03/13 09:14:18;;;;;;;4.17;0.90;;;22.40;4.90;;;;;;5059597;28;20480;-62
2023/03/13 09:16:47;;;;;;;6.93;1.20;;;23.20;3.50;;;;;;5061364;28;20449;-62
2023/03/13 09:19:14;;;;;;;4.33;1.80;;;24.10;1.40;;;;;;5063571;28;20489;-62
2023/03/13 09:21:41;;;;;;;4.33;1.00;;;25.30;1.00;;;;;;5063477;28;20453;-63
2023/03/13 09:24:08;;;;;;;4.57;0.70;;;27.20;1.00;;;;;;5061795;28;20476;-62
2023/03/13 09:26:35;;;;;;;3.80;0.90;;;28.40;1.00;;;;;;5058645;28;20476;-64
2023/03/13 09:29:02;;;;;;;4.10;0.70;;;28.90;1.00;;;;;;5061979;28;20926;-63
2023/03/13 09:31:32;;;;;;;6.37;1.53;;;29.50;1.00;;;;;;5055170;28;20474;-63
2023/03/13 09:34:01;;;;;;;3.60;0.80;;;29.60;1.00;;;;;;5058698;28;20472;-63
2023/03/13 09:36:28;;;;;;;4.27;0.90;;;29.80;1.00;;;;;;5067061;28;20453;-63
2023/03/13 09:38:56;;;;;;;3.87;1.00;;;29.90;1.00;;;;;;5072237;28;20829;-63
2023/03/13 09:41:30;;;;;;;4.90;0.97;;;29.60;1.00;;;;;;5063964;28;20949;-63
2023/03/13 09:44:03;;;;;;;3.47;0.73;;;28.70;1.00;;;;;;5054074;28;20473;-63
2023/03/13 09:46:37;;;;;;;3.87;0.90;;;27.70;1.00;;;;;;5054867;28;20477;-63
2023/03/13 09:49:12;;;;;;;4.70;1.00;;;26.80;1.00;;;;;;5059900;28;20940;-63
2023/03/13 09:51:41;;;;;;;4.53;0.90;;;26.70;1.00;;;;;;5064333;28;20456;-63
2023/03/13 09:54:14;;;;;;;4.90;0.77;;;26.60;1.00;;;;;;5057077;28;21163;-62
2023/03/13 09:56:45;;;;;;;4.57;1.00;;;25.80;1.00;;;;;;5066797;28;21306;-61
2023/03/13 09:59:18;;;;;;;3.57;0.83;;;25.20;1.00;;;;;;5064097;28;20457;-61
2023/03/13 10:01:47;;;;;;;3.90;0.90;;;24.90;1.00;;;;;;5066881;28;20488;-62
2023/03/13 10:04:31;;;;;;;3.80;0.80;;;25.50;1.00;;;;;;5066354;28;20522;-63
2023/03/13 10:06:58;;;;;;;5.30;0.90;;;26.60;1.00;;;;;;5066067;28;20487;-62
2023/03/13 10:09:29;;;;;;;5.03;0.80;;;27.70;1.00;;;;;;5064303;28;20460;-63
2023/03/13 10:12:06;;;;;;;3.47;0.80;;;28.40;1.00;;;;;;5066462;28;20810;-63
2023/03/13 10:14:39;;;;;;;3.23;0.60;;;29.70;1.00;;;;;;5062188;28;20472;-63
2023/03/13 10:17:13;;;;;;;4.43;0.93;;;30.80;1.00;;;;;;5066279;28;20451;-62
2023/03/13 10:19:43;;;;;;;4.60;1.03;;;31.20;1.00;;;;;;5066528;28;20553;-63
2023/03/13 10:22:15;;;;;;;3.40;0.77;;;31.80;1.00;;;;;;5066556;28;20500;-63
2023/03/13 10:24:49;;;;;;;4.27;0.80;;;32.60;1.00;;;;;;5063882;28;20473;-63
2023/03/13 10:27:16;;;;;;;4.03;1.07;;;33.00;1.00;;;;;;5055791;28;20483;-63
2023/03/13 10:29:43;;;;;;;3.50;0.73;;;33.10;1.00;;;;;;5067817;28;20461;-63
2023/03/13 10:32:12;;;;;;;4.53;1.27;;;33.00;1.00;;;;;;5056809;28;20481;-63
2023/03/13 10:34:53;;;;;;;5.70;1.00;;;33.30;1.00;;;;;;5048950;28;20481;-63
2023/03/13 10:37:23;;;;;;;5.00;1.40;;;33.00;1.00;;;;;;5061098;28;20955;-62
2023/03/13 10:39:50;;;;;;;5.47;1.03;;;32.70;1.00;;;;;;5062730;28;20942;-64
2023/03/13 10:42:23;;;;;;;3.20;0.80;;;31.40;1.00;;;;;;5064908;28;20464;-63
2023/03/13 10:44:55;;;;;;;6.20;1.37;;;29.70;1.00;;;;;;5064388;28;20481;-63
2023/03/13 10:47:22;;;;;;;4.80;1.10;;;28.10;1.00;;;;;;5063177;28;20484;-63
2023/03/13 10:49:52;;;;;;;4.07;1.10;;;26.80;1.00;;;;;;5056674;28;20462;-63
2023/03/13 10:52:41;;;;;;;3.50;0.90;;;25.60;1.00;;;;;;5066749;28;20460;-63
2023/03/13 10:55:13;;;;;;;3.90;1.17;;;24.50;1.00;;;;;;5060738;28;20473;-62
2023/03/13 10:57:43;;;;;;;4.20;1.23;;;23.90;1.80;;;;;;5064943;28;20457;-62
2023/03/13 11:00:29;;;;;;;4.27;0.83;;;23.90;2.40;;;;;;5064776;28;20798;-62
2023/03/13 11:02:56;;;;;;;4.77;1.00;;;23.50;2.60;;;;;;5062860;28;20459;-61
2023/03/13 11:05:42;;;;;;;4.47;1.27;;;23.40;3.50;;;;;;5062130;28;21015;-62
2023/03/13 11:08:19;;;;;;;4.17;1.10;;;24.50;2.40;;;;;;5055248;28;21001;-61
2023/03/13 11:10:58;;;;;;;4.60;1.27;;;25.20;1.60;;;;;;5054346;28;20535;-62
2023/03/13 11:13:35;;;;;;;3.77;0.97;;;25.60;1.10;;;;;;5065549;28;20473;-62
2023/03/13 11:16:14;;;;;;;4.60;1.27;;;26.00;1.00;;;;;;5053814;28;20516;-63
2023/03/13 11:18:54;;;;;;;4.83;1.37;;;26.00;1.00;;;;;;5062148;28;20458;-62
2023/03/13 11:21:29;;;;;;;3.63;0.83;;;25.80;1.00;;;;;;5061496;28;20468;-63
2023/03/13 11:24:03;;;;;;;4.27;1.13;;;25.50;1.00;;;;;;5065626;28;20475;-63
2023/03/13 11:26:36;;;;;;;4.17;1.07;;;25.20;1.00;;;;;;5062655;28;20481;-62
2023/03/13 11:29:09;;;;;;;3.97;1.03;;;25.00;1.30;;;;;;5061170;28;20465;-62
2023/03/13 11:31:40;;;;;;;5.13;1.93;;;24.80;1.90;;;;;;5063113;28;20461;-62
2023/03/13 11:34:14;;;;;;;4.30;1.00;;;24.50;2.00;;;;;;5057075;28;21331;-63
2023/03/13 11:36:52;;;;;;;7.33;1.10;;;24.10;2.60;;;;;;5063438;28;20457;-62
2023/03/13 11:39:40;;;;;;;4.50;1.03;;;23.80;2.90;;;;;;5057435;28;20466;-62
2023/03/13 11:42:16;;;;;;;4.57;1.40;;;23.70;3.80;;;;;;5061966;28;20461;-62
2023/03/13 11:44:54;;;;;;;4.37;1.00;;;23.80;3.80;;;;;;5064016;28;20847;-62
2023/03/13 11:47:34;;;;;;;3.67;0.90;;;23.80;3.60;;;;;;5061814;28;20482;-62
2023/03/13 11:50:20;;;;;;;4.33;1.20;;;23.90;4.00;;;;;;5064888;28;20475;-62
2023/03/13 11:53:03;;;;;;;4.60;1.00;;;24.00;3.50;;;;;;5065560;28;20956;-62
2023/03/13 11:55:50;;;;;;;5.87;1.20;;;23.70;2.80;;;;;;5063532;28;20461;-63
2023/03/13 11:58:49;;;;;;;5.03;1.30;;;23.50;3.20;;;;;;5056513;28;20841;-62
2023/03/13 12:01:18;;;;;;;5.53;1.30;;;23.50;3.80;;;;;;5054431;28;21044;-62
2023/03/13 12:03:56;;;;;;;4.00;1.13;;;23.70;3.50;;;;;;5060341;28;20723;-62
2023/03/13 12:06:28;;;;;;;7.83;1.70;;;23.80;3.20;;;;;;5061480;28;20484;-63
2023/03/13 12:09:03;;;;;;;5.63;1.53;;;23.90;3.30;;;;;;5063609;28;20454;-63
2023/03/13 12:11:33;;;;;;;4.10;1.17;;;24.00;2.80;;;;;;5060877;28;20452;-63
2023/03/13 12:14:03;;;;;;;4.67;1.23;;;23.90;2.80;;;;;;5057914;28;20946;-62
2023/03/13 12:16:39;;;;;;;3.57;1.20;;;23.90;2.80;;;;;;5060139;28;20457;-63
2023/03/13 12:19:11;;;;;;;4.63;1.40;;;23.90;2.90;;;;;;5061061;28;20826;-62
2023/03/13 12:21:42;;;;;;;4.60;1.30;;;23.80;2.60;;;;;;5056054;28;20468;-63
2023/03/13 12:24:19;;;;;;;4.47;1.00;;;23.60;2.90;;;;;;5056145;28;20473;-62
2023/03/13 12:26:49;;;;;;;5.17;1.27;;;23.40;3.00;;;;;;5061574;28;20484;-62
2023/03/13 12:29:25;;;;;;;4.93;1.20;;;23.20;3.20;;;;;;5063301;28;20456;-62
2023/03/13 12:31:57;;;;;;;4.80;1.50;;;23.10;3.40;;;;;;5058407;28;20481;-62
2023/03/13 12:34:30;;;;;;;3.47;0.90;;;22.90;4.10;;;;;;5057936;28;20468;-70
2023/03/13 12:37:05;;;;;;;4.47;1.20;;;22.70;4.00;;;;;;5059801;28;20453;-70
2023/03/13 12:39:39;;;;;;;6.30;1.57;;;22.50;5.00;;;;;;5060249;28;20460;-70
2023/03/13 12:42:17;;;;;;;4.83;1.47;;;22.30;5.50;;;;;;5064330;28;20453;-70
2023/03/13 12:44:44;;;;;;;6.43;1.30;;;22.20;6.00;;;;;;5057932;28;20481;-70
2023/03/13 12:47:17;;;;;;;9.70;1.20;;;22.10;6.00;;;;;;5051953;28;20477;-71
2023/03/13 12:50:13;;;;;;;4.40;1.10;;;22.00;6.10;;;;;;5062231;28;20452;-70
2023/03/13 12:53:13;;;;;;;5.77;1.80;;;22.00;6.10;;;;;;5057293;28;20456;-70
2023/03/13 12:56:03;;;;;;;5.47;1.37;;;21.80;6.40;;;;;;5033530;28;20464;-69
2023/03/13 12:58:40;;;;;;;7.03;1.70;;;21.60;5.80;;;;;;5060922;28;20450;-71
2023/03/13 13:01:13;;;;;;;5.40;1.40;;;21.50;6.90;;;;;;5058717;28;20469;-70
2023/03/13 13:03:50;;;;;;;6.77;2.10;;;21.30;6.60;;;;;;5062993;28;20488;-70
2023/03/13 13:06:18;;;;;;;5.83;2.10;;;21.30;6.70;;;;;;5058864;28;20461;-70
2023/03/13 13:08:48;;;;;;;4.50;1.43;;;21.20;6.90;;;;;;5066882;28;20456;-70